BCCO2: Caney Creek nr Barber, OK

Data processed at Sun Jan 13 2019 23:32


All information presented herein is the property of the government of the United States of America and may be revised or deleted at any time without prior notice.
Dissemination of this information without the expressed written consent of the Public Affairs Office, Tulsa District U.S. Army Corps of Engineers is strictly prohibited.
These data are gathered electronically and, as presented, have not undergone any form of quality control. These data are not guaranteed to be valid or correct.
Go to home page.
Go to station list.
Go to home page.

Downstream station:


Previous Day
Next Day
Current Day
    
SHEF ID:       BCCO2     Caney Creek near Barber, OK
STATION TYPE:  

               PRECIP     STAGE  STAGE(2)  RIV-FLOW  BAT-LOAD
                   in        ft        ft       cfs      volt
              Ccp-Rev   Ccp-Rev   Ccp-Rev   Ccp-Rev   Ccp-Rev
(US/Central)
01/13 00:00      0.00      7.35      7.36       374     12.49
01/13 01:00      0.00      7.36      7.37       380     12.49
01/13 02:00      0.00      7.32      7.35       356     12.49
01/13 03:00      0.00      7.34      7.34       368     12.49
01/13 04:00      0.00      7.36      7.36       380     12.49
01/13 05:00      0.00      7.34      7.34       368     12.49
01/13 06:00      0.00      7.34      7.34       368     12.49
01/13 07:00      0.00      7.36      7.35       380     12.49
01/13 08:00      0.00      7.35      7.35       374     12.49
01/13 09:00      0.00      7.36      7.35       380     12.49
01/13 10:00      0.00      7.35      7.35       374     12.49
01/13 11:00      0.00      7.37      7.36       386     12.57
01/13 12:00      0.00      7.37      7.37       386     12.65
01/13 13:00      0.00      7.37      7.37       386     12.81
01/13 14:00      0.00      7.39      7.38       399     12.81
01/13 15:00      0.00      7.41      7.39       411     12.89
01/13 16:00      0.00      7.39      7.39       399     12.81
01/13 17:00      0.00      7.41      7.40       411     12.73
01/13 18:00      0.00      7.43      7.42       424     12.57
01/13 19:00      0.00      7.42      7.42       418     12.49
01/13 20:00      0.00      7.44      7.42       431     12.49
01/13 21:00      0.00      7.45      7.43       438     12.49
01/13 22:00      0.00      7.45      7.44       438     12.49
01/13 23:00      0.00      7.45      7.44       438     12.49